»·PEaware :: DAL523 KGJT-KABQ

DAL523 :: KGJT-KABQ

FLIGHT INFORMATION

Flight Status: Arrived
Operator:
Delta Air Lines
More flights by this operator :: More flights under this callsign
Pilot: Marcus B. (1617)
Aircraft: MCDONNELL-DOUGLAS MD-88
(MD88)
More flights by this aircraft type
Origin: KGJT Walker
United States
Destination: KABQ Albuquerque Intl Sunport
United States
More flights between these airports :: More routes between these airports
Route: +RHONE2 JNC J15 RSK ROSEI LOWBO3
File this flight plan on PilotEdge
Remarks:
Altitude:
(Current/Filed)
29,000ft
Speed:
(Current/Filed)
450kts
Departed: 25-Oct-17 04:37 PM
Arrived: 25-Oct-17 05:24 PM
Distance/Time
Traveled:
261nm/0:46
Distance/Time
To Go:
Arrived

Flight Plot

Page will automatically refresh every two minutes.

Flight plan parsing failed; only flown route is shown


Map Options




Map Legend


Flown Route
Filed Route
Departure Airport
Arrival Airport
Navaid (VOR, NDB)
Fix

Horizontal Profiles

Position Reports

Time Latitude Longitude Heading Altitude Ground
Speed
25-Oct-17 15:46 39.122832 -108.528203 254 4834ft 0kts
25-Oct-17 15:47 39.122832 -108.528203 254 4834ft 0kts
25-Oct-17 15:48 39.122832 -108.528203 254 4834ft 0kts
25-Oct-17 15:49 39.122832 -108.528203 254 4834ft 0kts
25-Oct-17 15:50 39.122832 -108.528203 254 4834ft 0kts
25-Oct-17 15:51 39.122832 -108.528203 254 4834ft 0kts
25-Oct-17 15:52 39.122832 -108.528203 254 4834ft 0kts
25-Oct-17 15:53 39.122832 -108.528203 254 4834ft 0kts
25-Oct-17 15:54 39.122832 -108.528203 254 4834ft 0kts
25-Oct-17 15:55 39.122832 -108.528203 254 4834ft 0kts
25-Oct-17 15:56 39.122832 -108.528203 254 4834ft 0kts
25-Oct-17 15:57 39.122832 -108.528203 254 4834ft 0kts
25-Oct-17 15:58 39.122832 -108.528203 254 4834ft 0kts
25-Oct-17 15:59 39.122832 -108.528203 254 4834ft 0kts
25-Oct-17 16:00 39.122832 -108.528203 254 4834ft 0kts
25-Oct-17 16:01 39.122832 -108.528203 254 4834ft 0kts
25-Oct-17 16:02 39.122832 -108.528203 254 4834ft 0kts
25-Oct-17 16:03 39.122832 -108.528203 254 4834ft 0kts
25-Oct-17 16:04 39.122832 -108.528203 254 4834ft 0kts
25-Oct-17 16:05 39.122832 -108.528203 254 4834ft 0kts
25-Oct-17 16:06 39.122832 -108.528203 254 4834ft 0kts
25-Oct-17 16:07 39.122832 -108.528203 254 4834ft 0kts
25-Oct-17 16:08 39.122832 -108.528203 254 4834ft 0kts
25-Oct-17 16:09 39.122832 -108.528203 254 4834ft 0kts
25-Oct-17 16:10 39.122832 -108.528203 254 4834ft 0kts
25-Oct-17 16:11 39.122832 -108.528203 254 4834ft 0kts
25-Oct-17 16:12 39.122832 -108.528203 254 4834ft 0kts
25-Oct-17 16:13 39.122832 -108.528203 254 4834ft 0kts
25-Oct-17 16:14 39.122832 -108.528203 254 4834ft 0kts
25-Oct-17 16:15 39.122832 -108.528203 254 4834ft 0kts
25-Oct-17 16:16 39.122832 -108.528203 254 4834ft 0kts
25-Oct-17 16:17 39.122832 -108.528203 254 4834ft 0kts
25-Oct-17 16:18 39.122832 -108.528203 254 4834ft 0kts
25-Oct-17 16:19 39.122832 -108.528203 254 4834ft 0kts
25-Oct-17 16:20 39.122832 -108.528203 254 4834ft 0kts
25-Oct-17 16:21 39.122832 -108.528203 254 4834ft 0kts
25-Oct-17 16:22 39.122832 -108.528203 254 4834ft 0kts
25-Oct-17 16:23 39.122832 -108.528203 254 4834ft 0kts
25-Oct-17 16:24 39.122832 -108.528203 254 4834ft 0kts
25-Oct-17 16:25 39.122832 -108.528203 254 4834ft 0kts
25-Oct-17 16:26 39.122832 -108.528203 254 4834ft 0kts
25-Oct-17 16:27 39.122832 -108.528203 254 4834ft 0kts
25-Oct-17 16:28 39.122832 -108.528203 254 4834ft 0kts
25-Oct-17 16:29 39.122832 -108.528203 254 4834ft 0kts
25-Oct-17 16:30 39.122832 -108.528203 254 4834ft 0kts
25-Oct-17 16:31 39.122832 -108.528203 254 4834ft 0kts
25-Oct-17 16:32 39.123121 -108.527711 214 4837ft 1kts
25-Oct-17 16:33 39.123542 -108.527731 127 4838ft 0kts
25-Oct-17 16:34 39.123623 -108.527791 196 4838ft 0kts
25-Oct-17 16:35 39.123623 -108.527791 196 4838ft 0kts
25-Oct-17 16:36 39.123623 -108.527791 196 4838ft 0kts
25-Oct-17 16:37 39.123220 -108.527304 112 4838ft 8kts
25-Oct-17 16:38 39.123126 -108.525751 74 4842ft 10kts
25-Oct-17 16:39 39.118989 -108.517693 124 4848ft 32kts
25-Oct-17 16:40 39.118349 -108.516520 124 4849ft 0kts
25-Oct-17 16:41 39.118548 -108.514582 339 4850ft 5kts
25-Oct-17 16:42 39.119531 -108.516211 306 4851ft 56kts
25-Oct-17 16:43 39.140507 -108.559898 303 6198ft 174kts
25-Oct-17 16:44 39.155566 -108.626001 245 7309ft 217kts
25-Oct-17 16:45 39.110888 -108.695944 217 10290ft 273kts
25-Oct-17 16:46 39.060215 -108.775300 222 13684ft 303kts
25-Oct-17 16:47 38.978550 -108.770747 164 15274ft 322kts
25-Oct-17 16:48 38.890012 -108.739984 168 18771ft 338kts
25-Oct-17 16:49 38.801488 -108.712425 169 21937ft 330kts
25-Oct-17 16:50 38.704514 -108.682704 169 22902ft 389kts
25-Oct-17 16:51 38.594168 -108.649125 169 24145ft 429kts
25-Oct-17 16:52 38.475130 -108.612829 169 25779ft 450kts
25-Oct-17 16:53 38.352807 -108.576125 170 27755ft 455kts
25-Oct-17 16:54 38.229916 -108.539574 170 29204ft 457kts
25-Oct-17 16:55 38.108179 -108.503555 170 29210ft 447kts
25-Oct-17 16:56 37.987584 -108.467715 170 29214ft 446kts
25-Oct-17 16:57 37.868014 -108.432167 170 29214ft 446kts
25-Oct-17 16:58 37.748302 -108.396560 170 29300ft 446kts
25-Oct-17 16:59 37.644497 -108.365703 170 29322ft 446kts
25-Oct-17 17:00 37.528461 -108.331198 171 29315ft 446kts
25-Oct-17 17:01 37.408511 -108.295513 171 29316ft 446kts
25-Oct-17 17:02 37.287882 -108.259617 171 29208ft 446kts
25-Oct-17 17:03 37.167792 -108.223882 171 29227ft 446kts
25-Oct-17 17:04 37.047467 -108.188069 171 29235ft 446kts
25-Oct-17 17:05 36.926922 -108.152189 171 29236ft 446kts
25-Oct-17 17:06 36.809063 -108.117210 169 29236ft 445kts
25-Oct-17 17:07 36.692343 -108.069268 146 29182ft 453kts
25-Oct-17 17:08 36.589520 -107.978863 148 29183ft 453kts
25-Oct-17 17:09 36.486105 -107.891656 148 29159ft 452kts
25-Oct-17 17:10 36.382283 -107.804240 148 29157ft 452kts
25-Oct-17 17:11 36.278730 -107.717001 148 29157ft 452kts
25-Oct-17 17:12 36.174916 -107.629486 148 29158ft 452kts
25-Oct-17 17:13 36.063580 -107.564924 169 29162ft 443kts
25-Oct-17 17:14 35.949211 -107.529957 168 28348ft 449kts
25-Oct-17 17:15 35.831211 -107.491513 167 26929ft 446kts
25-Oct-17 17:16 35.711970 -107.452852 167 23981ft 437kts
25-Oct-17 17:17 35.597489 -107.416229 167 21626ft 417kts
25-Oct-17 17:18 35.488007 -107.381254 167 19264ft 401kts
25-Oct-17 17:19 35.395609 -107.317960 123 17213ft 386kts
25-Oct-17 17:20 35.344636 -107.210115 123 15636ft 362kts
25-Oct-17 17:21 35.291377 -107.107293 125 13181ft 343kts
25-Oct-17 17:22 35.227897 -107.029859 137 10770ft 314kts
25-Oct-17 17:23 35.168149 -106.963799 136 9963ft 278kts
25-Oct-17 17:24 35.116713 -106.902312 135 9290ft 244kts
25-Oct-17 17:25 35.072355 -106.841365 130 8476ft 239kts
25-Oct-17 17:26 35.041294 -106.772971 88 7607ft 233kts
25-Oct-17 17:27 35.043725 -106.703240 87 6533ft 184kts
25-Oct-17 17:28 35.044450 -106.642325 89 5709ft 175kts
25-Oct-17 17:29 35.044249 -106.599463 81 5321ft 33kts
25-Oct-17 17:30 35.045888 -106.597956 267 5324ft 22kts
25-Oct-17 17:31 35.045798 -106.604421 270 5321ft 15kts
25-Oct-17 17:32 35.045629 -106.613648 250 5315ft 21kts

Navigation Log

Ident Type
Flight plan parsing failed, navigation log unavailable